createdAt,value
2022-11-03T00:00:13.065Z,12.52
2022-11-03T00:01:12.636Z,12.51
2022-11-03T00:02:12.671Z,12.50
2022-11-03T00:03:11.869Z,12.49
2022-11-03T00:04:12.788Z,12.48
2022-11-03T00:05:12.526Z,12.48
2022-11-03T00:06:12.519Z,12.47
2022-11-03T00:07:11.827Z,12.47
2022-11-03T00:09:11.835Z,12.48
2022-11-03T00:10:11.789Z,12.48
2022-11-03T00:11:12.462Z,12.48
2022-11-03T00:12:11.785Z,12.49
2022-11-03T00:13:12.444Z,12.49
2022-11-03T00:14:12.434Z,12.50
2022-11-03T00:15:12.435Z,12.50
2022-11-03T00:16:12.427Z,12.50
2022-11-03T00:17:11.724Z,12.51
2022-11-03T00:18:12.440Z,12.51
2022-11-03T00:19:11.684Z,12.52
2022-11-03T00:20:11.781Z,12.52
2022-11-03T00:21:12.351Z,12.54
2022-11-03T00:22:11.649Z,12.53
2022-11-03T00:23:12.335Z,12.55
2022-11-03T00:24:11.633Z,12.55
2022-11-03T00:25:11.636Z,12.56
2022-11-03T00:26:12.290Z,12.56
2022-11-03T00:27:11.608Z,12.57
2022-11-03T00:28:12.280Z,12.57
2022-11-03T00:29:11.591Z,12.58
2022-11-03T00:30:12.246Z,12.58
2022-11-03T00:31:12.411Z,12.59
2022-11-03T00:32:11.582Z,12.60
2022-11-03T00:33:12.237Z,12.61
2022-11-03T00:34:12.213Z,12.61
2022-11-03T00:35:12.456Z,12.61
2022-11-03T00:36:12.186Z,12.61
2022-11-03T00:37:12.321Z,12.62
2022-11-03T00:38:11.594Z,12.62
2022-11-03T00:39:12.158Z,12.62
2022-11-03T00:40:12.152Z,12.61
2022-11-03T00:41:12.127Z,12.61
2022-11-03T00:42:11.426Z,12.61
2022-11-03T00:43:11.437Z,12.60
2022-11-03T00:44:12.467Z,12.59
2022-11-03T00:45:12.096Z,12.59
2022-11-03T00:46:12.087Z,12.58
2022-11-03T00:47:11.368Z,12.57
2022-11-03T00:48:12.065Z,12.56
2022-11-03T00:49:12.048Z,12.55
2022-11-03T00:50:11.369Z,12.55
2022-11-03T00:51:12.019Z,12.54
2022-11-03T00:52:11.358Z,12.53
2022-11-03T00:53:11.308Z,12.51
2022-11-03T00:54:11.996Z,12.49
2022-11-03T00:55:12.210Z,12.48
2022-11-03T00:56:11.959Z,12.47
2022-11-03T00:57:11.957Z,12.45
2022-11-03T00:58:11.960Z,12.44
2022-11-03T00:59:11.938Z,12.44
2022-11-03T01:00:11.231Z,12.42
2022-11-03T01:01:12.019Z,12.41
2022-11-03T01:02:11.432Z,12.41
2022-11-03T01:03:12.122Z,12.40
2022-11-03T01:04:11.872Z,12.40
2022-11-03T01:05:11.872Z,12.40
2022-11-03T01:06:11.176Z,12.39
2022-11-03T01:07:11.862Z,12.38
2022-11-03T01:08:11.920Z,12.38
2022-11-03T01:09:11.822Z,12.37
2022-11-03T01:10:11.123Z,12.37
2022-11-03T01:11:12.075Z,12.37
2022-11-03T01:12:11.795Z,12.37
2022-11-03T01:13:11.784Z,12.36
2022-11-03T01:14:11.894Z,12.37
2022-11-03T01:15:11.063Z,12.36
2022-11-03T01:16:11.754Z,12.35
2022-11-03T01:17:11.072Z,12.36
2022-11-03T01:18:11.048Z,12.35
2022-11-03T01:19:11.975Z,12.34
2022-11-03T01:20:12.565Z,12.34
2022-11-03T01:21:11.687Z,12.34
2022-11-03T01:22:11.687Z,12.33
2022-11-03T01:23:11.672Z,12.32
2022-11-03T01:24:11.377Z,12.31
2022-11-03T01:25:11.646Z,12.31
2022-11-03T01:26:11.712Z,12.32
2022-11-03T01:27:11.626Z,12.31
2022-11-03T01:28:10.944Z,12.31
2022-11-03T01:29:11.844Z,12.31
2022-11-03T01:30:11.600Z,12.32
2022-11-03T01:31:11.588Z,12.31
2022-11-03T01:32:11.003Z,12.32
2022-11-03T01:33:10.927Z,12.32
2022-11-03T01:34:10.879Z,12.34
2022-11-03T01:35:10.887Z,12.34
2022-11-03T01:36:10.849Z,12.35
2022-11-03T01:37:10.839Z,12.36
2022-11-03T01:38:10.890Z,12.39
2022-11-03T01:39:11.499Z,12.40
2022-11-03T01:40:11.631Z,12.42
2022-11-03T01:41:11.476Z,12.42
2022-11-03T01:42:10.781Z,12.43
2022-11-03T01:43:11.451Z,12.44
2022-11-03T01:44:11.522Z,12.45
2022-11-03T01:45:11.430Z,12.45
2022-11-03T01:46:10.731Z,12.46
2022-11-03T01:47:11.411Z,12.47
2022-11-03T01:48:11.412Z,12.48
2022-11-03T01:49:11.400Z,12.48
2022-11-03T01:50:10.727Z,12.49
2022-11-03T01:51:11.373Z,12.51
2022-11-03T01:52:10.711Z,12.51
2022-11-03T01:53:11.583Z,12.51
2022-11-03T01:54:11.526Z,12.52
2022-11-03T01:55:11.316Z,12.52
2022-11-03T01:56:10.644Z,12.53
2022-11-03T01:57:12.044Z,12.53
2022-11-03T01:58:10.604Z,12.55
2022-11-03T01:59:11.177Z,12.55
2022-11-03T02:00:10.634Z,12.56
2022-11-03T02:01:11.295Z,12.56
2022-11-03T02:02:10.774Z,12.56
2022-11-03T02:03:10.555Z,12.57
2022-11-03T02:04:11.226Z,12.58
2022-11-03T02:05:11.215Z,12.58
2022-11-03T02:06:11.215Z,12.59
2022-11-03T02:07:10.497Z,12.59
2022-11-03T02:08:10.514Z,12.59
2022-11-03T02:09:10.506Z,12.58
2022-11-03T02:10:10.696Z,12.59
2022-11-03T02:11:10.487Z,12.58
2022-11-03T02:12:10.499Z,12.59
2022-11-03T02:13:11.127Z,12.59
2022-11-03T02:14:10.435Z,12.59
2022-11-03T02:15:10.426Z,12.59
2022-11-03T02:16:11.098Z,12.59
2022-11-03T02:17:11.103Z,12.59
2022-11-03T02:18:11.090Z,12.59
2022-11-03T02:19:11.073Z,12.59
2022-11-03T02:20:10.399Z,12.60
2022-11-03T02:21:11.045Z,12.60
2022-11-03T02:22:11.037Z,12.60
2022-11-03T02:23:10.588Z,12.60
2022-11-03T02:24:11.772Z,12.61
2022-11-03T02:25:10.307Z,12.60
2022-11-03T02:26:10.979Z,12.60
2022-11-03T02:27:10.300Z,12.60
2022-11-03T02:28:10.292Z,12.59
2022-11-03T02:29:10.950Z,12.59
2022-11-03T02:30:11.832Z,12.59
2022-11-03T02:31:10.261Z,12.58
2022-11-03T02:32:10.246Z,12.58
2022-11-03T02:33:10.296Z,12.57
2022-11-03T02:34:10.252Z,12.56
2022-11-03T02:35:10.890Z,12.56
2022-11-03T02:36:10.212Z,12.56
2022-11-03T02:37:10.185Z,12.56
2022-11-03T02:38:10.354Z,12.56
2022-11-03T02:39:10.845Z,12.54
2022-11-03T02:40:10.142Z,12.54
2022-11-03T02:41:10.824Z,12.52
2022-11-03T02:42:10.801Z,12.52
2022-11-03T02:43:10.797Z,12.50
2022-11-03T02:44:10.785Z,12.49
2022-11-03T02:45:13.326Z,12.48
2022-11-03T02:46:11.075Z,12.47
2022-11-03T02:47:10.759Z,12.47
2022-11-03T02:48:10.709Z,12.45
2022-11-03T02:49:10.733Z,12.44
2022-11-03T02:50:10.065Z,12.44
2022-11-03T02:51:10.716Z,12.44
2022-11-03T02:52:10.704Z,12.43
2022-11-03T02:53:10.084Z,12.43
2022-11-03T02:54:09.998Z,12.42
2022-11-03T02:55:10.034Z,12.43
2022-11-03T02:56:10.657Z,12.41
2022-11-03T02:57:09.969Z,12.40
2022-11-03T02:58:10.627Z,12.40
2022-11-03T02:59:10.702Z,12.40
2022-11-03T03:00:10.622Z,12.39
2022-11-03T03:01:10.743Z,12.39
2022-11-03T03:02:10.661Z,12.38
2022-11-03T03:03:10.586Z,12.39
2022-11-03T03:04:10.569Z,12.39
2022-11-03T03:05:10.550Z,12.39
2022-11-03T03:06:09.891Z,12.39
2022-11-03T03:07:09.870Z,12.39
2022-11-03T03:08:10.520Z,12.39
2022-11-03T03:09:10.511Z,12.39
2022-11-03T03:10:09.819Z,12.40
2022-11-03T03:11:10.475Z,12.40
2022-11-03T03:12:09.821Z,12.41
2022-11-03T03:13:10.044Z,12.42
2022-11-03T03:14:09.785Z,12.42
2022-11-03T03:15:09.803Z,12.42
2022-11-03T03:16:09.750Z,12.43
2022-11-03T03:17:10.432Z,12.42
2022-11-03T03:18:09.772Z,12.43
2022-11-03T03:19:10.405Z,12.43
2022-11-03T03:20:10.393Z,12.44
2022-11-03T03:21:10.392Z,12.44
2022-11-03T03:22:10.622Z,12.44
2022-11-03T03:23:11.805Z,12.45
2022-11-03T03:24:10.363Z,12.47
2022-11-03T03:25:10.350Z,12.47
2022-11-03T03:26:09.649Z,12.48
2022-11-03T03:27:09.623Z,12.50
2022-11-03T03:28:09.623Z,12.50
2022-11-03T03:29:09.624Z,12.48
2022-11-03T03:30:10.284Z,12.49
2022-11-03T03:31:10.265Z,12.50
2022-11-03T03:32:09.595Z,12.50
2022-11-03T03:33:10.411Z,12.51
2022-11-03T03:34:31.282Z,12.50
2022-11-03T03:35:11.211Z,12.51
2022-11-03T03:36:10.216Z,12.50
2022-11-03T03:37:10.205Z,12.50
2022-11-03T03:38:10.206Z,12.50
2022-11-03T03:39:10.186Z,12.50
2022-11-03T03:40:10.917Z,12.51
2022-11-03T03:41:11.007Z,12.51
2022-11-03T03:42:09.956Z,12.50
2022-11-03T03:43:10.139Z,12.51
2022-11-03T03:44:09.468Z,12.50
2022-11-03T03:45:09.429Z,12.50
2022-11-03T03:46:10.107Z,12.51
2022-11-03T03:47:09.436Z,12.50
2022-11-03T03:48:09.728Z,12.50
2022-11-03T03:49:09.400Z,12.50
2022-11-03T03:50:09.380Z,12.50
2022-11-03T03:51:09.380Z,12.49
2022-11-03T03:52:10.039Z,12.48
2022-11-03T03:53:09.380Z,12.49
2022-11-03T03:54:09.343Z,12.49
2022-11-03T03:55:10.147Z,12.49
2022-11-03T03:56:09.312Z,12.48
2022-11-03T03:57:09.311Z,12.49
2022-11-03T03:58:09.525Z,12.49
2022-11-03T03:59:09.326Z,12.49
2022-11-03T04:00:09.962Z,12.49
2022-11-03T04:01:09.310Z,12.48
2022-11-03T04:02:09.381Z,12.48
2022-11-03T04:03:09.249Z,12.48
2022-11-03T04:04:09.910Z,12.48
2022-11-03T04:05:09.997Z,12.48
2022-11-03T04:06:09.892Z,12.48
2022-11-03T04:07:10.633Z,12.48
2022-11-03T04:08:09.297Z,12.49
2022-11-03T04:09:09.194Z,12.49
2022-11-03T04:10:09.853Z,12.50
2022-11-03T04:11:09.189Z,12.50
2022-11-03T04:12:09.133Z,12.51
2022-11-03T04:13:11.905Z,12.52
2022-11-03T04:14:09.335Z,12.53
2022-11-03T04:15:09.625Z,12.54
2022-11-03T04:16:10.854Z,12.55
2022-11-03T04:17:09.107Z,12.57
2022-11-03T04:18:10.909Z,12.56
2022-11-03T04:19:09.235Z,12.57
2022-11-03T04:20:09.138Z,12.58
2022-11-03T04:21:09.072Z,12.59
2022-11-03T04:22:09.712Z,12.60
2022-11-03T04:23:09.026Z,12.61
2022-11-03T04:24:09.048Z,12.62
2022-11-03T04:25:08.997Z,12.61
2022-11-03T04:26:10.427Z,12.61
2022-11-03T04:27:08.972Z,12.61
2022-11-03T04:28:09.080Z,12.62
2022-11-03T04:29:09.646Z,12.62
2022-11-03T04:30:09.209Z,12.62
2022-11-03T04:31:08.948Z,12.63
2022-11-03T04:32:09.291Z,12.63
2022-11-03T04:33:09.599Z,12.62
2022-11-03T04:34:09.690Z,12.63
2022-11-03T04:35:09.583Z,12.63
2022-11-03T04:36:08.920Z,12.63
2022-11-03T04:37:09.582Z,12.62
2022-11-03T04:38:09.801Z,12.62
2022-11-03T04:39:09.558Z,12.63
2022-11-03T04:40:09.502Z,12.62
2022-11-03T04:41:08.943Z,12.61
2022-11-03T04:42:08.826Z,12.61
2022-11-03T04:43:09.613Z,12.60
2022-11-03T04:44:09.481Z,12.60
2022-11-03T04:45:09.462Z,12.59
2022-11-03T04:46:09.446Z,12.58
2022-11-03T04:47:09.447Z,12.58
2022-11-03T04:48:08.764Z,12.57
2022-11-03T04:49:09.423Z,12.57
2022-11-03T04:50:09.402Z,12.56
2022-11-03T04:51:09.395Z,12.55
2022-11-03T04:52:09.486Z,12.55
2022-11-03T04:53:09.037Z,12.56
2022-11-03T04:54:08.684Z,12.55
2022-11-03T04:55:08.664Z,12.55
2022-11-03T04:56:09.343Z,12.54
2022-11-03T04:57:11.557Z,12.55
2022-11-03T04:58:11.512Z,12.54
2022-11-03T04:59:08.688Z,12.54
2022-11-03T05:00:08.657Z,12.55
2022-11-03T05:01:08.642Z,12.55
2022-11-03T05:03:09.450Z,12.56
2022-11-03T05:04:09.330Z,12.57
2022-11-03T05:05:09.240Z,12.57
2022-11-03T05:06:08.559Z,12.56
2022-11-03T05:07:10.470Z,12.57
2022-11-03T05:08:09.217Z,12.57
2022-11-03T05:09:08.507Z,12.57
2022-11-03T05:10:08.527Z,12.58
2022-11-03T05:11:10.430Z,12.57
2022-11-03T05:12:09.168Z,12.57
2022-11-03T05:13:09.503Z,12.59
2022-11-03T05:14:09.888Z,12.59
2022-11-03T05:15:09.129Z,12.59
2022-11-03T05:16:09.102Z,12.59
2022-11-03T05:17:09.108Z,12.59
2022-11-03T05:18:09.107Z,12.60
2022-11-03T05:19:08.401Z,12.60
2022-11-03T05:20:09.081Z,12.61
2022-11-03T05:21:09.069Z,12.61
2022-11-03T05:22:08.390Z,12.61
2022-11-03T05:23:09.358Z,12.61
2022-11-03T05:24:09.064Z,12.61
2022-11-03T05:25:09.021Z,12.62
2022-11-03T05:26:08.332Z,12.63
2022-11-03T05:27:08.313Z,12.63
2022-11-03T05:28:08.718Z,12.64
2022-11-03T05:29:08.284Z,12.66
2022-11-03T05:30:08.964Z,12.66
2022-11-03T05:31:08.952Z,12.67
2022-11-03T05:32:08.596Z,12.68
2022-11-03T05:33:08.932Z,12.68
2022-11-03T05:34:08.252Z,12.68
2022-11-03T05:35:08.235Z,12.70
2022-11-03T05:36:08.218Z,12.71
2022-11-03T05:37:08.232Z,12.72
2022-11-03T05:38:08.476Z,12.73
2022-11-03T05:39:08.204Z,12.74
2022-11-03T05:40:08.927Z,12.75
2022-11-03T05:41:08.843Z,12.76
2022-11-03T05:42:09.085Z,12.77
2022-11-03T05:43:12.153Z,12.79
2022-11-03T05:44:08.126Z,12.81
2022-11-03T05:45:08.799Z,12.81
2022-11-03T05:46:08.154Z,12.83
2022-11-03T05:47:08.450Z,12.84
2022-11-03T05:48:09.004Z,12.86
2022-11-03T05:49:08.755Z,12.87
2022-11-03T05:50:08.055Z,12.88
2022-11-03T05:51:08.737Z,12.89
2022-11-03T05:52:08.706Z,12.91
2022-11-03T05:53:08.717Z,12.92
2022-11-03T05:54:08.697Z,12.94
2022-11-03T05:55:08.009Z,12.94
2022-11-03T05:56:08.678Z,12.96
2022-11-03T05:57:08.009Z,12.97
2022-11-03T05:58:08.981Z,12.98
2022-11-03T05:59:08.648Z,12.99
2022-11-03T06:00:08.631Z,13.00
2022-11-03T06:01:07.948Z,13.02
2022-11-03T06:02:09.498Z,13.03
2022-11-03T06:03:07.921Z,13.04
2022-11-03T06:04:08.581Z,13.06
2022-11-03T06:05:07.890Z,13.06
2022-11-03T06:06:08.600Z,13.09
2022-11-03T06:07:08.561Z,13.11
2022-11-03T06:08:08.840Z,13.13
2022-11-03T06:09:08.542Z,13.15
2022-11-03T06:10:08.512Z,13.16
2022-11-03T06:11:08.520Z,13.19
2022-11-03T06:12:08.501Z,13.20
2022-11-03T06:13:08.962Z,13.21
2022-11-03T06:14:08.482Z,13.22
2022-11-03T06:15:08.472Z,13.23
2022-11-03T06:16:08.451Z,13.24
2022-11-03T06:17:08.452Z,13.26
2022-11-03T06:18:07.744Z,13.26
2022-11-03T06:19:07.763Z,13.27
2022-11-03T06:20:08.423Z,13.29
2022-11-03T06:21:08.438Z,13.30
2022-11-03T06:22:08.683Z,13.32
2022-11-03T06:23:07.966Z,13.33
2022-11-03T06:24:08.421Z,13.35
2022-11-03T06:25:08.384Z,13.37
2022-11-03T06:26:07.674Z,13.38
2022-11-03T06:27:08.337Z,13.39
2022-11-03T06:28:08.635Z,13.39
2022-11-03T06:29:07.647Z,13.40
2022-11-03T06:30:07.638Z,13.41
2022-11-03T06:31:07.617Z,13.42
2022-11-03T06:32:08.299Z,13.42
2022-11-03T06:33:08.573Z,13.43
2022-11-03T06:34:08.250Z,13.44
2022-11-03T06:35:07.570Z,13.44
2022-11-03T06:36:07.556Z,13.45
2022-11-03T06:37:12.524Z,13.45
2022-11-03T06:38:09.228Z,13.47
2022-11-03T06:39:08.209Z,13.47
2022-11-03T06:40:07.555Z,13.49
2022-11-03T06:41:08.191Z,13.49
2022-11-03T06:42:08.460Z,13.50
2022-11-03T06:43:08.461Z,13.51
2022-11-03T06:44:08.160Z,13.52
2022-11-03T06:45:08.149Z,13.53
2022-11-03T06:46:08.118Z,13.55
2022-11-03T06:47:07.559Z,13.57
2022-11-03T06:48:07.435Z,13.59
2022-11-03T06:49:08.119Z,13.60
2022-11-03T06:50:08.880Z,13.61
2022-11-03T06:51:08.161Z,13.62
2022-11-03T06:52:08.852Z,13.64
2022-11-03T06:53:08.346Z,13.66
2022-11-03T06:54:08.051Z,13.67
2022-11-03T06:55:12.112Z,13.68
2022-11-03T06:56:08.351Z,13.70
2022-11-03T06:57:07.331Z,13.71
2022-11-03T06:58:07.991Z,13.74
2022-11-03T06:59:08.002Z,13.76
2022-11-03T07:00:28.448Z,13.78
2022-11-03T07:01:08.374Z,13.80
2022-11-03T07:02:08.330Z,13.81
2022-11-03T07:03:08.476Z,13.85
2022-11-03T07:04:07.382Z,13.87
2022-11-03T07:05:07.511Z,13.91
2022-11-03T07:06:07.934Z,13.94
2022-11-03T07:07:07.905Z,13.96
2022-11-03T07:08:07.895Z,13.98
2022-11-03T07:09:08.145Z,14.01
2022-11-03T07:10:07.304Z,14.02
2022-11-03T07:11:07.555Z,14.05
2022-11-03T07:12:07.864Z,14.06
2022-11-03T07:13:07.949Z,14.09
2022-11-03T07:14:07.157Z,14.12
2022-11-03T07:15:08.603Z,14.14
2022-11-03T07:16:07.816Z,14.16
2022-11-03T07:17:07.806Z,14.18
2022-11-03T07:18:08.106Z,14.21
2022-11-03T07:19:07.780Z,14.23
2022-11-03T07:20:07.768Z,14.25
2022-11-03T07:21:07.059Z,14.27
2022-11-03T07:22:08.045Z,14.29
2022-11-03T07:23:07.045Z,14.31
2022-11-03T07:24:07.737Z,14.33
2022-11-03T07:25:07.019Z,14.36
2022-11-03T07:26:07.709Z,14.38
2022-11-03T07:27:07.779Z,14.39
2022-11-03T07:28:08.031Z,14.40
2022-11-03T07:29:06.988Z,14.42
2022-11-03T07:30:07.664Z,14.44
2022-11-03T07:31:11.185Z,14.45
2022-11-03T07:32:07.990Z,14.46
2022-11-03T07:33:06.952Z,14.48
2022-11-03T07:34:07.621Z,14.50
2022-11-03T07:35:07.618Z,14.50
2022-11-03T07:36:15.528Z,14.52
2022-11-03T07:37:07.916Z,14.53
2022-11-03T07:38:08.536Z,14.55
2022-11-03T07:39:07.572Z,14.56
2022-11-03T07:40:07.556Z,14.58
2022-11-03T07:41:06.852Z,14.59
2022-11-03T07:42:08.285Z,14.60
2022-11-03T07:43:07.523Z,14.61
2022-11-03T07:44:06.853Z,14.62
2022-11-03T07:45:06.813Z,14.64
2022-11-03T07:46:07.487Z,14.66
2022-11-03T07:47:07.477Z,14.67
2022-11-03T07:48:07.694Z,14.69
2022-11-03T07:49:07.464Z,14.70
2022-11-03T07:50:07.525Z,14.72
2022-11-03T07:51:07.432Z,14.72
2022-11-03T07:52:06.763Z,14.74
2022-11-03T07:53:07.656Z,14.76
2022-11-03T07:54:07.406Z,14.78
2022-11-03T07:55:06.708Z,14.79
2022-11-03T07:56:06.817Z,14.81
2022-11-03T07:57:07.369Z,14.83
2022-11-03T07:58:07.680Z,14.85
2022-11-03T07:59:07.347Z,14.87
2022-11-03T08:00:10.233Z,14.89
2022-11-03T08:01:06.638Z,14.91
2022-11-03T08:02:07.359Z,14.93
2022-11-03T08:03:07.552Z,14.95
2022-11-03T08:04:07.291Z,14.97
2022-11-03T08:05:07.312Z,14.98
2022-11-03T08:06:09.108Z,14.99
2022-11-03T08:07:06.560Z,15.02
2022-11-03T08:08:07.659Z,15.02
2022-11-03T08:09:06.565Z,15.03
2022-11-03T08:10:06.549Z,15.05
2022-11-03T08:11:07.277Z,15.07
2022-11-03T08:12:07.231Z,15.08
2022-11-03T08:13:06.816Z,15.10
2022-11-03T08:14:06.671Z,15.13
2022-11-03T08:15:07.164Z,15.14
2022-11-03T08:16:06.471Z,15.16
2022-11-03T08:17:07.153Z,15.16
2022-11-03T08:18:07.139Z,15.18
2022-11-03T08:19:06.434Z,15.19
2022-11-03T08:20:07.893Z,15.20
2022-11-03T08:21:07.112Z,15.19
2022-11-03T08:22:07.093Z,15.20
2022-11-03T08:24:08.074Z,15.21
2022-11-03T08:25:07.053Z,15.23
2022-11-03T08:26:07.133Z,15.25
2022-11-03T08:27:07.036Z,15.23
2022-11-03T08:28:07.028Z,15.23
2022-11-03T08:29:07.026Z,15.24
2022-11-03T08:30:06.315Z,15.25
2022-11-03T08:31:11.179Z,15.26
2022-11-03T08:32:07.966Z,15.28
2022-11-03T08:33:07.213Z,15.28
2022-11-03T08:34:06.297Z,15.30
2022-11-03T08:35:06.960Z,15.32
2022-11-03T08:36:06.937Z,15.31
2022-11-03T08:37:06.926Z,15.32
2022-11-03T08:38:07.180Z,15.32
2022-11-03T08:39:06.907Z,15.31
2022-11-03T08:40:06.197Z,15.31
2022-11-03T08:41:06.208Z,15.29
2022-11-03T08:42:06.198Z,15.29
2022-11-03T08:43:06.863Z,15.28
2022-11-03T08:44:06.947Z,15.30
2022-11-03T08:45:06.148Z,15.29
2022-11-03T08:46:16.678Z,15.31
2022-11-03T08:47:08.560Z,15.34
2022-11-03T08:48:06.434Z,15.37
2022-11-03T08:49:06.800Z,15.42
2022-11-03T08:50:06.152Z,15.45
2022-11-03T08:51:06.778Z,15.47
2022-11-03T08:52:06.768Z,15.48
2022-11-03T08:53:07.513Z,15.50
2022-11-03T08:54:06.742Z,15.51
2022-11-03T08:55:06.063Z,15.51
2022-11-03T08:56:10.402Z,15.53
2022-11-03T08:57:07.022Z,15.54
2022-11-03T08:58:06.318Z,15.56
2022-11-03T08:59:06.691Z,15.57
2022-11-03T09:00:06.680Z,15.58
2022-11-03T09:01:07.973Z,15.59
2022-11-03T09:02:06.729Z,15.61
2022-11-03T09:03:06.672Z,15.63
2022-11-03T09:04:06.694Z,15.63
2022-11-03T09:05:06.623Z,15.64
2022-11-03T09:06:05.928Z,15.66
2022-11-03T09:07:06.594Z,15.67
2022-11-03T09:10:26.363Z,15.69
2022-11-03T09:11:07.546Z,15.70
2022-11-03T09:12:06.535Z,15.71
2022-11-03T09:13:06.197Z,15.72
2022-11-03T09:14:06.489Z,15.75
2022-11-03T09:15:05.826Z,15.77
2022-11-03T09:16:05.827Z,15.80
2022-11-03T09:17:05.819Z,15.83
2022-11-03T09:18:06.156Z,15.87
2022-11-03T09:19:06.467Z,15.89
2022-11-03T09:20:06.447Z,15.91
2022-11-03T09:21:06.447Z,15.94
2022-11-03T09:22:06.445Z,15.97
2022-11-03T09:23:06.424Z,16.00
2022-11-03T09:24:06.681Z,16.02
2022-11-03T09:25:06.406Z,16.04
2022-11-03T09:26:06.381Z,16.08
2022-11-03T09:27:05.689Z,16.11
2022-11-03T09:28:07.554Z,16.15
2022-11-03T09:29:06.357Z,16.19
2022-11-03T09:30:13.316Z,16.24
2022-11-03T09:31:06.742Z,16.27
2022-11-03T09:32:06.331Z,16.32
2022-11-03T09:33:06.312Z,16.35
2022-11-03T09:34:06.311Z,16.39
2022-11-03T09:35:07.601Z,16.41
2022-11-03T09:36:06.283Z,16.44
2022-11-03T09:37:06.351Z,16.46
2022-11-03T09:38:06.892Z,16.47
2022-11-03T09:39:06.245Z,16.50
2022-11-03T09:40:06.994Z,16.51
2022-11-03T09:41:13.633Z,16.53
2022-11-03T09:42:08.004Z,16.54
2022-11-03T09:43:05.792Z,16.57
2022-11-03T09:44:06.455Z,16.58
2022-11-03T09:45:06.184Z,16.60
2022-11-03T09:46:06.189Z,16.61
2022-11-03T09:47:06.167Z,16.62
2022-11-03T09:48:06.161Z,16.65
2022-11-03T09:49:06.147Z,16.66
2022-11-03T09:50:06.301Z,16.68
2022-11-03T09:51:06.125Z,16.70
2022-11-03T09:52:06.119Z,16.72
2022-11-03T09:53:06.407Z,16.76
2022-11-03T09:54:06.187Z,16.79
2022-11-03T09:55:07.347Z,16.82
2022-11-03T09:56:06.105Z,16.86
2022-11-03T09:57:07.341Z,16.90
2022-11-03T09:58:05.603Z,16.94
2022-11-03T09:59:06.040Z,16.98
2022-11-03T10:00:06.314Z,17.02
2022-11-03T10:01:06.092Z,17.05
2022-11-03T10:02:06.110Z,17.09
2022-11-03T10:03:05.800Z,17.11
2022-11-03T10:04:05.988Z,17.15
2022-11-03T10:05:11.012Z,17.19
2022-11-03T10:06:07.624Z,17.24
2022-11-03T10:07:05.960Z,17.29
2022-11-03T10:08:05.252Z,17.34
2022-11-03T10:09:05.931Z,17.39
2022-11-03T10:10:05.922Z,17.44
2022-11-03T10:11:05.220Z,17.48
2022-11-03T10:12:05.882Z,17.52
2022-11-03T10:13:05.540Z,17.56
2022-11-03T10:14:05.872Z,17.61
2022-11-03T10:15:06.111Z,17.64
2022-11-03T10:16:07.102Z,17.70
2022-11-03T10:17:06.093Z,17.75
2022-11-03T10:18:05.184Z,17.80
2022-11-03T10:19:06.074Z,17.85
2022-11-03T10:20:05.149Z,17.90
2022-11-03T10:21:05.816Z,17.96
2022-11-03T10:22:05.105Z,18.02
2022-11-03T10:23:05.994Z,18.07
2022-11-03T10:24:05.755Z,18.12
2022-11-03T10:25:05.754Z,18.18
2022-11-03T10:26:06.046Z,18.24
2022-11-03T10:27:05.036Z,18.29
2022-11-03T10:28:05.048Z,18.35
2022-11-03T10:29:05.739Z,18.40
2022-11-03T10:30:05.692Z,18.44
2022-11-03T10:31:11.747Z,18.48
2022-11-03T10:32:06.929Z,18.51
2022-11-03T10:33:05.953Z,18.53
2022-11-03T10:34:06.908Z,18.57
2022-11-03T10:35:06.367Z,18.59
2022-11-03T10:36:05.050Z,18.62
2022-11-03T10:37:06.888Z,18.64
2022-11-03T10:38:05.620Z,18.66
2022-11-03T10:39:05.608Z,18.70
2022-11-03T10:40:07.077Z,18.73
2022-11-03T10:41:05.579Z,18.74
2022-11-03T10:42:05.570Z,18.76
2022-11-03T10:43:05.826Z,18.80
2022-11-03T10:44:06.800Z,18.82
2022-11-03T10:45:06.793Z,18.86
2022-11-03T10:46:08.079Z,18.89
2022-11-03T10:47:05.760Z,18.92
2022-11-03T10:48:06.772Z,18.96
2022-11-03T10:50:05.474Z,18.98
2022-11-03T10:51:05.466Z,18.99
2022-11-03T10:52:06.724Z,19.02
2022-11-03T10:53:06.998Z,19.02
2022-11-03T10:54:05.446Z,19.03
2022-11-03T10:55:05.703Z,19.02
2022-11-03T10:56:05.414Z,19.03
2022-11-03T10:57:05.674Z,19.02
2022-11-03T10:58:05.648Z,19.03
2022-11-03T10:59:05.655Z,19.02
2022-11-03T11:00:05.363Z,19.02
2022-11-03T11:01:05.447Z,19.01
2022-11-03T11:02:04.803Z,19.00
2022-11-03T11:03:06.844Z,19.00
2022-11-03T11:04:05.397Z,18.99
2022-11-03T11:05:04.637Z,18.98
2022-11-03T11:06:05.297Z,18.97
2022-11-03T11:07:05.296Z,18.95
2022-11-03T11:08:05.356Z,18.95
2022-11-03T11:09:05.276Z,18.95
2022-11-03T11:10:05.267Z,18.93
2022-11-03T11:11:05.260Z,18.93
2022-11-03T11:12:05.241Z,18.91
2022-11-03T11:13:05.500Z,18.89
2022-11-03T11:14:05.224Z,18.87
2022-11-03T11:15:05.949Z,18.85
2022-11-03T11:16:05.472Z,18.84
2022-11-03T11:17:04.521Z,18.83
2022-11-03T11:18:05.242Z,18.82
2022-11-03T11:19:05.161Z,18.80
2022-11-03T11:20:05.440Z,18.78
2022-11-03T11:21:05.151Z,18.76
2022-11-03T11:22:04.461Z,18.72
2022-11-03T11:23:04.942Z,18.70
2022-11-03T11:24:05.893Z,18.67
2022-11-03T11:25:05.111Z,18.64
2022-11-03T11:26:05.092Z,18.62
2022-11-03T11:27:05.085Z,18.60
2022-11-03T11:28:04.412Z,18.57
2022-11-03T11:29:05.055Z,18.55
2022-11-03T11:30:04.403Z,18.52
2022-11-03T11:31:05.794Z,18.50
2022-11-03T11:32:04.356Z,18.48
2022-11-03T11:33:04.615Z,18.47
2022-11-03T11:34:05.016Z,18.44
2022-11-03T11:35:04.322Z,18.42
2022-11-03T11:36:04.327Z,18.40
2022-11-03T11:37:04.973Z,18.39
2022-11-03T11:38:04.966Z,18.37
2022-11-03T11:39:04.963Z,18.36
2022-11-03T11:40:04.288Z,18.38
2022-11-03T11:41:04.943Z,18.39
2022-11-03T11:42:04.908Z,18.41
2022-11-03T11:43:05.340Z,18.43
2022-11-03T11:44:04.899Z,18.46
2022-11-03T11:45:05.151Z,18.48
2022-11-03T11:46:04.210Z,18.49
2022-11-03T11:47:04.873Z,18.51
2022-11-03T11:48:04.188Z,18.51
2022-11-03T11:49:04.175Z,18.52
2022-11-03T11:50:04.839Z,18.52
2022-11-03T11:51:05.081Z,18.53
2022-11-03T11:52:05.559Z,18.53
2022-11-03T11:53:05.421Z,18.54
2022-11-03T11:54:17.405Z,18.53
2022-11-03T11:55:06.040Z,18.51
2022-11-03T11:56:04.773Z,18.49
2022-11-03T11:57:04.757Z,18.46
2022-11-03T11:58:04.084Z,18.44
2022-11-03T11:59:04.757Z,18.41
2022-11-03T12:00:04.084Z,18.39
2022-11-03T12:01:04.715Z,18.37
2022-11-03T12:02:04.965Z,18.35
2022-11-03T12:03:04.137Z,18.35
2022-11-03T12:04:04.813Z,18.36
2022-11-03T12:05:03.998Z,18.37
2022-11-03T12:06:04.013Z,18.38
2022-11-03T12:07:03.975Z,18.38
2022-11-03T12:08:04.137Z,18.38
2022-11-03T12:09:03.945Z,18.38
2022-11-03T12:10:04.616Z,18.38
2022-11-03T12:11:04.651Z,18.36
2022-11-03T12:12:08.596Z,18.33
2022-11-03T12:13:04.865Z,18.30
2022-11-03T12:14:03.899Z,18.26
2022-11-03T12:15:04.557Z,18.21
2022-11-03T12:16:03.879Z,18.16
2022-11-03T12:17:04.000Z,18.11
2022-11-03T12:18:04.955Z,18.07
2022-11-03T12:19:03.839Z,18.03
2022-11-03T12:20:04.508Z,17.98
2022-11-03T12:21:04.499Z,17.96
2022-11-03T12:22:04.489Z,17.93
2022-11-03T12:23:04.478Z,17.90
2022-11-03T12:24:04.469Z,17.87
2022-11-03T12:25:03.778Z,17.85
2022-11-03T12:26:04.449Z,17.83
2022-11-03T12:27:05.201Z,17.82
2022-11-03T12:28:04.049Z,17.81
2022-11-03T12:29:04.414Z,17.80
2022-11-03T12:30:03.761Z,17.80
2022-11-03T12:31:03.733Z,17.81
2022-11-03T12:32:03.712Z,17.82
2022-11-03T12:33:04.882Z,17.85
2022-11-03T12:34:04.361Z,17.92
2022-11-03T12:35:04.355Z,17.99
2022-11-03T12:36:04.323Z,18.07
2022-11-03T12:37:03.659Z,18.15
2022-11-03T12:38:04.319Z,18.25
2022-11-03T12:39:04.306Z,18.36
2022-11-03T12:40:04.293Z,18.44
2022-11-03T12:41:04.284Z,18.52
2022-11-03T12:42:04.265Z,18.60
2022-11-03T12:43:04.579Z,18.67
2022-11-03T12:44:04.302Z,18.75
2022-11-03T12:45:04.242Z,18.82
2022-11-03T12:46:04.501Z,18.89
2022-11-03T12:47:04.233Z,18.97
2022-11-03T12:48:04.196Z,19.04
2022-11-03T12:49:04.196Z,19.08
2022-11-03T12:50:04.186Z,19.10
2022-11-03T12:51:03.563Z,19.14
2022-11-03T12:52:07.952Z,19.17
2022-11-03T12:53:05.011Z,19.19
2022-11-03T12:54:03.491Z,19.21
2022-11-03T12:55:04.135Z,19.20
2022-11-03T12:56:03.470Z,19.20
2022-11-03T12:57:04.115Z,19.17
2022-11-03T12:58:04.250Z,19.13